createdAt,value
2018-05-31T00:00:01.183Z,18.70
2018-05-31T00:02:29.563Z,18.70
2018-05-31T00:04:58.643Z,18.70
2018-05-31T00:07:26.996Z,18.70
2018-05-31T00:09:55.331Z,18.70
2018-05-31T00:12:23.672Z,18.80
2018-05-31T00:14:52.004Z,18.70
2018-05-31T00:17:20.376Z,18.80
2018-05-31T00:19:48.744Z,18.80
2018-05-31T00:22:17.078Z,18.80
2018-05-31T00:24:45.465Z,18.80
2018-05-31T00:27:13.794Z,18.70
2018-05-31T00:29:42.141Z,18.70
2018-05-31T00:32:10.489Z,18.70
2018-05-31T00:34:38.865Z,18.70
2018-05-31T00:37:07.201Z,18.60
2018-05-31T00:39:35.547Z,18.40
2018-05-31T00:42:04.649Z,18.50
2018-05-31T00:44:33.772Z,18.50
2018-05-31T00:47:02.101Z,18.40
2018-05-31T00:49:30.469Z,18.50
2018-05-31T00:51:58.790Z,18.50
2018-05-31T00:54:27.149Z,18.60
2018-05-31T00:56:56.235Z,18.60
2018-05-31T00:59:24.588Z,18.60
2018-05-31T01:01:52.927Z,18.50
2018-05-31T01:04:22.037Z,18.40
2018-05-31T01:06:50.351Z,18.40
2018-05-31T01:09:18.711Z,18.40
2018-05-31T01:11:47.035Z,18.50
2018-05-31T01:14:16.160Z,18.50
2018-05-31T01:16:44.484Z,18.50
2018-05-31T01:19:12.857Z,18.50
2018-05-31T01:21:41.948Z,18.50
2018-05-31T01:24:10.287Z,18.50
2018-05-31T01:26:38.618Z,18.40
2018-05-31T01:29:06.952Z,18.50
2018-05-31T01:31:35.310Z,18.50
2018-05-31T01:34:04.387Z,18.50
2018-05-31T01:36:33.512Z,18.50
2018-05-31T01:39:01.861Z,18.50
2018-05-31T01:41:30.992Z,18.50
2018-05-31T01:43:59.338Z,18.50
2018-05-31T01:46:28.473Z,18.30
2018-05-31T01:48:56.812Z,18.30
2018-05-31T01:51:25.951Z,18.30
2018-05-31T01:53:54.274Z,18.20
2018-05-31T01:56:22.613Z,18.20
2018-05-31T01:58:50.947Z,18.20
2018-05-31T02:01:20.072Z,18.00
2018-05-31T02:03:48.387Z,18.00
2018-05-31T02:06:17.504Z,18.10
2018-05-31T02:08:45.825Z,18.10
2018-05-31T02:11:14.184Z,18.10
2018-05-31T02:13:42.666Z,18.20
2018-05-31T02:16:11.772Z,18.20
2018-05-31T02:18:40.200Z,18.10
2018-05-31T02:21:08.531Z,18.30
2018-05-31T02:23:36.881Z,18.30
2018-05-31T02:26:06.047Z,18.20
2018-05-31T02:28:35.176Z,18.30
2018-05-31T02:31:04.348Z,17.90
2018-05-31T02:33:32.721Z,17.90
2018-05-31T02:36:01.149Z,17.90
2018-05-31T02:38:29.516Z,17.80
2018-05-31T02:40:58.612Z,18.10
2018-05-31T02:43:26.987Z,18.10
2018-05-31T02:45:55.301Z,18.10
2018-05-31T02:48:23.652Z,18.00
2018-05-31T02:50:52.739Z,18.20
2018-05-31T02:53:21.864Z,18.30
2018-05-31T02:55:50.193Z,18.30
2018-05-31T02:58:18.727Z,18.30
2018-05-31T03:00:47.084Z,18.30
2018-05-31T03:03:15.548Z,18.40
2018-05-31T03:05:43.876Z,18.40
2018-05-31T03:08:12.221Z,18.40
2018-05-31T03:10:40.632Z,18.40
2018-05-31T03:13:08.972Z,18.40
2018-05-31T03:15:38.143Z,18.40
2018-05-31T03:18:06.492Z,18.40
2018-05-31T03:20:34.895Z,18.50
2018-05-31T03:23:03.494Z,18.30
2018-05-31T03:25:31.854Z,18.40
2018-05-31T03:28:00.176Z,18.30
2018-05-31T03:30:29.291Z,17.60
2018-05-31T03:32:57.627Z,17.60
2018-05-31T03:35:26.785Z,17.50
2018-05-31T03:37:55.110Z,17.50
2018-05-31T03:40:24.356Z,17.80
2018-05-31T03:42:52.729Z,17.70
2018-05-31T03:45:21.101Z,17.80
2018-05-31T03:47:49.456Z,18.00
2018-05-31T03:50:18.732Z,18.20
2018-05-31T03:52:47.109Z,18.20
2018-05-31T03:58:15.619Z,18.40
2018-05-31T04:00:44.008Z,18.40
2018-05-31T04:03:12.371Z,18.50
2018-05-31T04:05:40.750Z,18.60
2018-05-31T04:08:09.097Z,18.60
2018-05-31T04:10:37.480Z,18.50
2018-05-31T04:13:05.864Z,18.60
2018-05-31T04:15:34.173Z,18.70
2018-05-31T04:18:02.514Z,18.80
2018-05-31T04:20:30.875Z,18.90
2018-05-31T04:22:59.248Z,18.90
2018-05-31T04:25:27.581Z,18.90
2018-05-31T04:27:55.957Z,18.80
2018-05-31T04:30:24.311Z,18.80
2018-05-31T04:32:52.681Z,18.80
2018-05-31T04:35:21.033Z,18.80
2018-05-31T04:37:49.390Z,18.60
2018-05-31T04:40:18.488Z,18.30
2018-05-31T04:42:46.847Z,18.30
2018-05-31T04:45:15.186Z,18.40
2018-05-31T04:47:43.552Z,18.70
2018-05-31T04:50:11.891Z,18.90
2018-05-31T04:52:40.272Z,18.90
2018-05-31T04:55:08.624Z,18.80
2018-05-31T04:57:36.997Z,18.90
2018-05-31T05:00:05.361Z,19.10
2018-05-31T05:02:33.861Z,19.30
2018-05-31T05:05:02.212Z,19.10
2018-05-31T05:07:30.584Z,19.20
2018-05-31T05:09:58.921Z,19.30
2018-05-31T05:12:28.040Z,19.60
2018-05-31T05:14:56.380Z,19.60
2018-05-31T05:17:25.503Z,19.80
2018-05-31T05:19:53.888Z,19.70
2018-05-31T05:22:22.220Z,19.60
2018-05-31T05:24:50.590Z,19.70
2018-05-31T05:27:18.945Z,19.90
2018-05-31T05:29:47.297Z,20.00
2018-05-31T05:32:15.670Z,20.10
2018-05-31T05:34:44.812Z,20.00
2018-05-31T05:37:13.144Z,20.00
2018-05-31T05:39:41.516Z,20.10
2018-05-31T05:42:09.870Z,20.30
2018-05-31T05:44:38.266Z,20.30
2018-05-31T05:47:07.392Z,20.40
2018-05-31T05:49:35.772Z,20.30
2018-05-31T05:52:04.192Z,20.30
2018-05-31T05:54:32.588Z,20.50
2018-05-31T05:57:00.932Z,20.40
2018-05-31T05:59:29.315Z,20.20
2018-05-31T06:01:57.710Z,20.20
2018-05-31T06:04:26.079Z,20.10
2018-05-31T06:06:54.445Z,20.30
2018-05-31T06:09:22.775Z,20.60
2018-05-31T06:11:51.137Z,20.50
2018-05-31T06:14:19.455Z,20.70
2018-05-31T06:16:47.819Z,21.10
2018-05-31T06:19:16.209Z,21.20
2018-05-31T06:21:45.337Z,21.40
2018-05-31T06:24:13.691Z,21.40
2018-05-31T06:26:42.803Z,21.60
2018-05-31T06:29:11.155Z,21.60
2018-05-31T06:31:39.496Z,21.70
2018-05-31T06:34:07.849Z,22.10
2018-05-31T06:36:36.213Z,22.30
2018-05-31T06:39:04.590Z,22.30
2018-05-31T06:41:33.736Z,22.60
2018-05-31T06:44:02.056Z,22.60
2018-05-31T06:46:31.160Z,22.90
2018-05-31T06:48:59.523Z,22.90
2018-05-31T06:51:27.914Z,23.10
2018-05-31T06:53:56.283Z,23.40
2018-05-31T06:56:24.639Z,23.40
2018-05-31T06:58:52.992Z,23.20
2018-05-31T07:01:21.351Z,23.50
2018-05-31T07:03:49.674Z,23.90
2018-05-31T07:06:18.029Z,24.30
2018-05-31T07:08:46.362Z,24.50
2018-05-31T07:11:14.749Z,24.30
2018-05-31T07:13:43.847Z,24.50
2018-05-31T07:16:12.931Z,24.20
2018-05-31T07:18:42.043Z,24.60
2018-05-31T07:21:10.371Z,24.60
2018-05-31T07:23:39.509Z,25.20
2018-05-31T07:26:08.586Z,25.60
2018-05-31T07:28:36.944Z,25.50
2018-05-31T07:31:05.268Z,25.60
2018-05-31T07:33:33.747Z,25.20
2018-05-31T07:36:02.832Z,25.90
2018-05-31T07:38:31.942Z,26.10
2018-05-31T07:41:01.019Z,25.90
2018-05-31T07:43:29.369Z,25.90
2018-05-31T07:45:57.684Z,26.10
2018-05-31T07:48:26.798Z,25.60
2018-05-31T07:50:55.164Z,25.50
2018-05-31T07:53:24.292Z,25.50
2018-05-31T07:55:52.597Z,25.50
2018-05-31T07:58:21.031Z,25.70
2018-05-31T08:00:49.473Z,26.30
2018-05-31T08:03:18.014Z,26.40
2018-05-31T08:05:46.334Z,26.50
2018-05-31T08:08:15.455Z,27.20
2018-05-31T08:10:43.820Z,27.20
2018-05-31T08:13:12.186Z,27.20
2018-05-31T08:15:40.551Z,27.60
2018-05-31T08:18:09.860Z,27.60
2018-05-31T08:20:38.262Z,26.70
2018-05-31T08:23:07.341Z,27.00
2018-05-31T08:25:35.697Z,27.00
2018-05-31T08:28:04.013Z,27.60
2018-05-31T08:30:33.256Z,27.70
2018-05-31T08:33:01.588Z,27.70
2018-05-31T08:35:30.689Z,28.10
2018-05-31T08:37:59.785Z,28.40
2018-05-31T08:40:28.903Z,28.40
2018-05-31T08:42:57.235Z,28.40
2018-05-31T08:45:25.579Z,28.30
2018-05-31T08:47:53.889Z,28.40
2018-05-31T08:50:22.764Z,28.30
2018-05-31T08:52:51.136Z,28.20
2018-05-31T08:55:19.624Z,28.10
2018-05-31T08:57:47.980Z,28.10
2018-05-31T09:00:16.363Z,27.40
2018-05-31T09:02:44.700Z,27.40
2018-05-31T09:05:13.839Z,27.50
2018-05-31T09:07:42.190Z,27.50
2018-05-31T09:10:10.529Z,27.40
2018-05-31T09:12:38.876Z,28.00
2018-05-31T09:15:07.235Z,28.20
2018-05-31T09:17:35.598Z,28.10
2018-05-31T09:20:04.757Z,28.70
2018-05-31T09:22:33.092Z,28.70
2018-05-31T09:25:01.431Z,28.70
2018-05-31T09:27:30.559Z,27.50
2018-05-31T09:29:58.872Z,27.40
2018-05-31T09:32:27.211Z,27.70
2018-05-31T09:34:55.551Z,27.90
2018-05-31T09:37:24.680Z,28.10
2018-05-31T09:39:53.757Z,28.40
2018-05-31T09:42:22.103Z,28.40
2018-05-31T09:44:50.457Z,29.00
2018-05-31T09:47:18.806Z,28.30
2018-05-31T09:49:47.169Z,28.60
2018-05-31T09:52:15.552Z,29.20
2018-05-31T09:54:44.684Z,29.50
2018-05-31T09:57:13.122Z,29.50
2018-05-31T09:59:41.452Z,28.60
2018-05-31T10:02:09.812Z,28.60
2018-05-31T10:04:38.134Z,28.70
2018-05-31T10:07:06.500Z,29.70
2018-05-31T10:09:34.820Z,29.30
2018-05-31T10:12:03.928Z,29.30
2018-05-31T10:14:33.060Z,30.20
2018-05-31T10:17:01.420Z,30.20
2018-05-31T10:19:29.778Z,30.80
2018-05-31T10:21:58.151Z,31.10
2018-05-31T10:24:27.257Z,31.50
2018-05-31T10:26:56.364Z,31.60
2018-05-31T10:29:24.697Z,31.50
2018-05-31T10:31:53.033Z,31.30
2018-05-31T10:34:21.379Z,31.50
2018-05-31T10:36:50.458Z,31.70
2018-05-31T10:39:18.792Z,31.70
2018-05-31T10:41:47.116Z,31.70
2018-05-31T10:44:15.464Z,31.50
2018-05-31T10:46:43.790Z,31.00
2018-05-31T10:49:12.143Z,30.70
2018-05-31T10:51:40.468Z,30.80
2018-05-31T10:54:08.816Z,31.50
2018-05-31T10:56:37.336Z,31.40
2018-05-31T10:59:05.679Z,31.80
2018-05-31T11:01:34.890Z,32.20
2018-05-31T11:04:03.985Z,32.00
2018-05-31T11:06:33.124Z,32.10
2018-05-31T11:09:01.484Z,32.00
2018-05-31T11:11:29.951Z,32.30
2018-05-31T11:13:58.287Z,32.50
2018-05-31T11:16:26.615Z,32.50
2018-05-31T11:18:54.927Z,32.50
2018-05-31T11:21:23.279Z,32.40
2018-05-31T11:23:51.602Z,32.30
2018-05-31T11:26:20.749Z,32.30
2018-05-31T11:28:49.073Z,32.20
2018-05-31T11:31:17.421Z,32.60
2018-05-31T11:33:45.736Z,32.30
2018-05-31T11:36:14.092Z,31.60
2018-05-31T11:38:42.424Z,31.50
2018-05-31T11:41:11.520Z,30.30
2018-05-31T11:43:39.880Z,30.30
2018-05-31T11:46:08.955Z,30.50
2018-05-31T11:48:37.328Z,30.50
2018-05-31T11:51:05.670Z,31.40
2018-05-31T11:53:34.011Z,32.00
2018-05-31T11:56:03.094Z,32.10
2018-05-31T11:58:31.442Z,32.10
2018-05-31T12:00:59.775Z,32.30
2018-05-31T12:03:28.869Z,32.80
2018-05-31T12:05:57.954Z,32.60
2018-05-31T12:08:27.138Z,31.60
2018-05-31T12:10:55.401Z,31.50
2018-05-31T12:13:23.747Z,30.30
2018-05-31T12:15:52.063Z,30.80
2018-05-31T12:18:21.925Z,31.30
2018-05-31T12:20:50.273Z,31.30
2018-05-31T12:23:19.409Z,32.60
2018-05-31T12:25:47.934Z,32.60
2018-05-31T12:28:16.276Z,32.60
2018-05-31T12:30:44.587Z,32.50
2018-05-31T12:33:12.895Z,32.00
2018-05-31T12:35:42.008Z,32.80
2018-05-31T12:38:10.354Z,32.80
2018-05-31T12:40:38.692Z,32.60
2018-05-31T12:43:07.888Z,31.90
2018-05-31T12:45:36.274Z,31.40
2018-05-31T12:48:04.687Z,31.40
2018-05-31T12:50:33.040Z,32.10
2018-05-31T12:53:01.347Z,32.30
2018-05-31T12:55:29.684Z,31.10
2018-05-31T12:57:58.008Z,31.90
2018-05-31T13:00:27.126Z,32.40
2018-05-31T13:02:55.488Z,32.40
2018-05-31T13:05:24.583Z,32.50
2018-05-31T13:07:52.939Z,32.50
2018-05-31T13:10:21.286Z,32.60
2018-05-31T13:12:49.644Z,32.80
2018-05-31T13:15:18.016Z,33.10
2018-05-31T13:17:46.354Z,32.70
2018-05-31T13:20:14.678Z,32.30
2018-05-31T13:22:43.024Z,31.80
2018-05-31T13:25:11.352Z,32.30
2018-05-31T13:27:39.712Z,32.60
2018-05-31T13:30:08.028Z,32.90
2018-05-31T13:32:36.368Z,33.30
2018-05-31T13:35:04.694Z,33.30
2018-05-31T13:37:33.040Z,33.40
2018-05-31T13:40:01.352Z,32.60
2018-05-31T13:42:29.724Z,32.80
2018-05-31T13:44:58.041Z,33.10
2018-05-31T13:47:27.139Z,33.10
2018-05-31T13:49:55.474Z,33.10
2018-05-31T13:52:23.823Z,33.20
2018-05-31T13:54:52.144Z,32.70
2018-05-31T13:57:20.513Z,32.90
2018-05-31T13:59:48.857Z,32.90
2018-05-31T14:02:17.220Z,33.00
2018-05-31T14:04:45.589Z,32.80
2018-05-31T14:07:13.976Z,32.90
2018-05-31T14:09:42.325Z,33.00
2018-05-31T14:12:10.655Z,32.80
2018-05-31T14:14:38.997Z,33.20
2018-05-31T14:17:07.344Z,33.20
2018-05-31T14:19:35.716Z,33.20
2018-05-31T14:22:04.043Z,33.30
2018-05-31T14:24:32.386Z,33.30
2018-05-31T14:27:00.749Z,33.40
2018-05-31T14:29:29.093Z,33.70
2018-05-31T14:31:57.440Z,33.80
2018-05-31T14:34:26.576Z,33.70
2018-05-31T14:36:54.887Z,33.70
2018-05-31T14:39:23.251Z,33.80
2018-05-31T14:44:53.235Z,33.60
2018-05-31T14:47:22.352Z,33.40
2018-05-31T14:49:50.694Z,33.40
2018-05-31T14:52:19.799Z,33.30
2018-05-31T14:54:48.915Z,33.20
2018-05-31T14:57:17.229Z,33.20
2018-05-31T14:59:45.585Z,33.30
2018-05-31T15:02:13.906Z,33.10
2018-05-31T15:04:43.025Z,33.00
2018-05-31T15:07:12.163Z,33.10
2018-05-31T15:09:40.523Z,33.10
2018-05-31T15:12:08.892Z,32.90
2018-05-31T15:14:38.059Z,32.80
2018-05-31T15:17:07.164Z,32.60
2018-05-31T15:19:35.500Z,32.60
2018-05-31T15:22:03.885Z,32.80
2018-05-31T15:24:32.958Z,32.10
2018-05-31T15:27:01.326Z,32.10
2018-05-31T15:29:29.632Z,32.30
2018-05-31T15:31:57.983Z,32.30
2018-05-31T15:34:26.332Z,32.20
2018-05-31T15:36:55.460Z,31.70
2018-05-31T15:39:23.820Z,31.70
2018-05-31T15:41:52.932Z,31.60
2018-05-31T15:44:21.264Z,31.60
2018-05-31T15:46:49.625Z,31.20
2018-05-31T15:49:18.952Z,31.40
2018-05-31T15:51:47.318Z,31.50
2018-05-31T15:54:15.653Z,31.20
2018-05-31T15:56:44.025Z,31.30
2018-05-31T15:59:12.376Z,31.20
2018-05-31T16:01:41.568Z,31.00
2018-05-31T16:04:10.667Z,30.80
2018-05-31T16:06:39.784Z,30.80
2018-05-31T16:09:08.124Z,30.80
2018-05-31T16:11:36.443Z,30.90
2018-05-31T16:14:04.806Z,31.00
2018-05-31T16:16:33.889Z,30.60
2018-05-31T16:19:02.262Z,30.60
2018-05-31T16:21:30.598Z,30.50
2018-05-31T16:23:58.939Z,30.30
2018-05-31T16:26:28.072Z,30.30
2018-05-31T16:28:56.429Z,30.30
2018-05-31T16:31:24.757Z,30.20
2018-05-31T16:33:53.096Z,30.10
2018-05-31T16:36:21.425Z,30.30
2018-05-31T16:38:49.794Z,30.20
2018-05-31T16:41:18.127Z,30.00
2018-05-31T16:43:46.519Z,30.10
2018-05-31T16:46:14.865Z,30.10
2018-05-31T16:48:44.001Z,29.60
2018-05-31T16:51:12.334Z,29.60
2018-05-31T16:53:41.445Z,29.90
2018-05-31T16:56:09.808Z,29.90
2018-05-31T16:58:38.888Z,29.70
2018-05-31T17:01:07.231Z,29.70
2018-05-31T17:03:35.571Z,29.70
2018-05-31T17:06:03.907Z,29.60
2018-05-31T17:08:32.224Z,29.60
2018-05-31T17:11:01.336Z,29.50
2018-05-31T17:13:29.655Z,29.50
2018-05-31T17:15:58.003Z,29.40
2018-05-31T17:18:26.329Z,29.40
2018-05-31T17:20:54.723Z,29.20
2018-05-31T17:23:23.799Z,29.30
2018-05-31T17:28:52.461Z,29.30
2018-05-31T17:31:20.794Z,29.00
2018-05-31T17:33:49.120Z,29.00
2018-05-31T17:36:17.452Z,28.90
2018-05-31T17:38:45.785Z,28.80
2018-05-31T17:41:14.120Z,28.60
2018-05-31T17:43:42.488Z,28.60
2018-05-31T17:46:11.571Z,28.30
2018-05-31T17:48:39.911Z,28.20
2018-05-31T17:51:08.230Z,28.20
2018-05-31T17:53:36.579Z,28.10
2018-05-31T17:56:05.001Z,28.20
2018-05-31T17:58:34.130Z,28.10
2018-05-31T18:01:02.477Z,28.10
2018-05-31T18:03:31.586Z,28.10
2018-05-31T18:05:59.951Z,28.10
2018-05-31T18:08:29.151Z,27.90
2018-05-31T18:10:58.255Z,27.80
2018-05-31T18:13:27.367Z,27.80
2018-05-31T18:15:55.692Z,27.80
2018-05-31T18:18:24.057Z,27.70
2018-05-31T18:20:52.419Z,27.60
2018-05-31T18:23:20.751Z,27.40
2018-05-31T18:25:49.936Z,27.30
2018-05-31T18:28:18.500Z,27.30
2018-05-31T18:30:46.854Z,27.30
2018-05-31T18:33:15.193Z,27.30
2018-05-31T18:35:44.286Z,27.10
2018-05-31T18:38:13.419Z,27.00
2018-05-31T18:40:41.768Z,27.00
2018-05-31T18:43:10.853Z,26.80
2018-05-31T18:48:33.444Z,27.00
2018-05-31T18:51:01.784Z,27.10
2018-05-31T18:53:30.907Z,26.80
2018-05-31T18:56:00.004Z,26.70
2018-05-31T18:58:29.534Z,26.60
2018-05-31T19:00:58.058Z,26.60
2018-05-31T19:03:26.589Z,26.40
2018-05-31T19:05:55.135Z,26.20
2018-05-31T19:08:23.581Z,26.40
2018-05-31T19:10:52.099Z,26.30
2018-05-31T19:13:37.097Z,26.20
2018-05-31T19:16:06.584Z,26.00
2018-05-31T19:18:41.146Z,26.00
2018-05-31T19:21:10.192Z,25.90
2018-05-31T19:23:39.693Z,25.90
2018-05-31T19:26:08.319Z,25.70
2018-05-31T19:28:36.657Z,25.60
2018-05-31T19:31:11.602Z,25.50
2018-05-31T19:33:40.695Z,25.40
2018-05-31T19:36:14.943Z,25.40
2018-05-31T19:38:43.292Z,25.50
2018-05-31T19:41:12.404Z,25.10
2018-05-31T19:43:47.060Z,25.00
2018-05-31T19:46:15.391Z,25.00
2018-05-31T19:48:44.499Z,24.70
2018-05-31T19:51:12.859Z,24.70
2018-05-31T19:53:44.169Z,24.10
2018-05-31T19:56:12.565Z,23.60
2018-05-31T19:58:46.716Z,23.70
2018-05-31T20:01:21.552Z,24.00
2018-05-31T20:03:50.620Z,24.20
2018-05-31T20:06:18.947Z,24.20
2018-05-31T20:08:47.258Z,24.20
2018-05-31T20:11:15.595Z,24.40
2018-05-31T20:13:43.925Z,24.10
2018-05-31T20:16:13.039Z,23.60
2018-05-31T20:18:42.121Z,23.80
2018-05-31T20:21:10.472Z,23.70
2018-05-31T20:23:38.793Z,23.70
2018-05-31T20:26:07.895Z,23.90
2018-05-31T20:28:36.986Z,23.90
2018-05-31T20:31:06.062Z,24.00
2018-05-31T20:33:34.420Z,24.00
2018-05-31T20:36:02.732Z,23.90
2018-05-31T20:38:31.061Z,23.90
2018-05-31T20:40:59.387Z,23.70
2018-05-31T20:43:27.711Z,23.60
2018-05-31T20:45:56.028Z,23.60
2018-05-31T20:48:24.380Z,23.20
2018-05-31T20:53:31.627Z,23.40
2018-05-31T20:56:00.705Z,23.00
2018-05-31T20:58:29.048Z,23.00
2018-05-31T21:00:57.361Z,22.90
2018-05-31T21:03:25.692Z,22.40
2018-05-31T21:05:53.997Z,22.70
2018-05-31T21:08:22.353Z,22.70
2018-05-31T21:10:50.667Z,22.70
2018-05-31T21:13:19.000Z,22.60
2018-05-31T21:15:47.304Z,22.80
2018-05-31T21:18:15.656Z,22.70
2018-05-31T21:20:43.984Z,22.40
2018-05-31T21:23:12.295Z,22.50
2018-05-31T21:25:40.628Z,22.70
2018-05-31T21:28:08.975Z,22.80
2018-05-31T21:30:37.334Z,22.40
2018-05-31T21:33:05.665Z,22.30
2018-05-31T21:35:34.071Z,21.60
2018-05-31T21:38:02.339Z,21.60
2018-05-31T21:40:30.672Z,21.90
2018-05-31T21:42:58.976Z,22.20
2018-05-31T21:45:27.307Z,22.40
2018-05-31T21:47:55.627Z,22.40
2018-05-31T21:50:23.964Z,22.60
2018-05-31T21:52:52.285Z,22.70
2018-05-31T21:55:20.613Z,22.70
2018-05-31T21:57:48.924Z,22.70
2018-05-31T22:00:41.608Z,22.50
2018-05-31T22:03:09.921Z,22.10
2018-05-31T22:05:38.315Z,22.10
2018-05-31T22:08:07.353Z,22.10
2018-05-31T22:10:35.680Z,22.10
2018-05-31T22:13:04.021Z,22.10
2018-05-31T22:15:32.324Z,22.10
2018-05-31T22:18:00.668Z,22.20
2018-05-31T22:20:28.977Z,22.30
2018-05-31T22:22:57.349Z,22.20
2018-05-31T22:25:26.419Z,22.30
2018-05-31T22:27:54.750Z,22.30
2018-05-31T22:30:23.059Z,22.20
2018-05-31T22:32:51.397Z,22.20
2018-05-31T22:35:19.713Z,22.20
2018-05-31T22:37:48.839Z,22.20
2018-05-31T22:40:17.907Z,22.10
2018-05-31T22:42:46.239Z,22.10
2018-05-31T22:45:14.556Z,22.00
2018-05-31T22:47:42.890Z,22.00
2018-05-31T22:50:11.203Z,22.00
2018-05-31T22:52:39.527Z,21.90
2018-05-31T22:55:08.605Z,21.80
2018-05-31T22:57:36.955Z,21.80
2018-05-31T23:00:05.260Z,21.90
2018-05-31T23:02:33.404Z,21.90
2018-05-31T23:05:01.727Z,21.80
2018-05-31T23:07:30.079Z,21.90
2018-05-31T23:09:58.395Z,21.80
2018-05-31T23:12:26.720Z,21.80
2018-05-31T23:14:55.820Z,21.70
2018-05-31T23:17:24.143Z,21.70
2018-05-31T23:19:53.237Z,21.60
2018-05-31T23:22:22.332Z,21.70
2018-05-31T23:24:50.687Z,21.60
2018-05-31T23:27:19.005Z,21.50
2018-05-31T23:29:47.337Z,21.40
2018-05-31T23:32:15.648Z,21.30
2018-05-31T23:34:44.751Z,21.30
2018-05-31T23:37:13.072Z,21.20
2018-05-31T23:39:41.432Z,21.20
2018-05-31T23:42:09.739Z,21.20
2018-05-31T23:44:38.091Z,21.10
2018-05-31T23:47:06.415Z,21.10
2018-05-31T23:49:34.750Z,21.20
2018-05-31T23:52:03.092Z,21.20
2018-05-31T23:54:32.162Z,21.00
2018-05-31T23:57:00.548Z,21.00
2018-05-31T23:59:29.623Z,21.00
